sensor_id;sensor_type;location;lat;lon;timestamp;pressure;altitude;pressure_sealevel;temperature;humidity
21760;BME280;11041;50.854;20.580;2023-02-18T00:01:33;98056.19;;;7.28;99.12
21760;BME280;11041;50.854;20.580;2023-02-18T00:04:00;98047.03;;;6.88;99.73
21760;BME280;11041;50.854;20.580;2023-02-18T00:06:32;98064.28;;;6.60;100.00
21760;BME280;11041;50.854;20.580;2023-02-18T00:09:00;98057.84;;;6.43;100.00
21760;BME280;11041;50.854;20.580;2023-02-18T00:11:31;98069.97;;;6.36;100.00
21760;BME280;11041;50.854;20.580;2023-02-18T00:14:01;98072.19;;;6.34;100.00
21760;BME280;11041;50.854;20.580;2023-02-18T00:16:30;98065.22;;;6.42;100.00
21760;BME280;11041;50.854;20.580;2023-02-18T00:18:59;98073.72;;;6.40;100.00
21760;BME280;11041;50.854;20.580;2023-02-18T00:21:27;98069.28;;;6.45;100.00
21760;BME280;11041;50.854;20.580;2023-02-18T00:23:54;98078.06;;;6.42;100.00
21760;BME280;11041;50.854;20.580;2023-02-18T00:26:21;98088.47;;;6.39;100.00
21760;BME280;11041;50.854;20.580;2023-02-18T00:28:49;98078.28;;;6.45;100.00
21760;BME280;11041;50.854;20.580;2023-02-18T00:31:27;98105.47;;;6.50;100.00
21760;BME280;11041;50.854;20.580;2023-02-18T00:33:56;98065.53;;;6.54;100.00
21760;BME280;11041;50.854;20.580;2023-02-18T00:36:24;98064.22;;;6.52;100.00
21760;BME280;11041;50.854;20.580;2023-02-18T00:38:55;98066.75;;;6.48;100.00
21760;BME280;11041;50.854;20.580;2023-02-18T00:41:24;98063.81;;;6.45;100.00
21760;BME280;11041;50.854;20.580;2023-02-18T00:43:51;98065.03;;;6.38;100.00
21760;BME280;11041;50.854;20.580;2023-02-18T00:46:18;98061.50;;;6.38;100.00
21760;BME280;11041;50.854;20.580;2023-02-18T00:48:45;98063.22;;;6.34;100.00
21760;BME280;11041;50.854;20.580;2023-02-18T00:51:11;98064.44;;;6.28;100.00
21760;BME280;11041;50.854;20.580;2023-02-18T00:53:39;98077.69;;;6.21;100.00
21760;BME280;11041;50.854;20.580;2023-02-18T00:56:06;98078.25;;;6.17;100.00
21760;BME280;11041;50.854;20.580;2023-02-18T00:58:35;98093.63;;;6.27;100.00
21760;BME280;11041;50.854;20.580;2023-02-18T01:01:04;98081.09;;;6.26;100.00
21760;BME280;11041;50.854;20.580;2023-02-18T01:03:31;98066.16;;;6.24;100.00
21760;BME280;11041;50.854;20.580;2023-02-18T01:05:58;98084.84;;;6.30;100.00
21760;BME280;11041;50.854;20.580;2023-02-18T01:08:25;98083.22;;;6.29;100.00
21760;BME280;11041;50.854;20.580;2023-02-18T01:10:56;98076.03;;;6.19;100.00
21760;BME280;11041;50.854;20.580;2023-02-18T01:13:24;98086.06;;;6.24;99.88
21760;BME280;11041;50.854;20.580;2023-02-18T01:15:51;98087.19;;;6.23;99.76
21760;BME280;11041;50.854;20.580;2023-02-18T01:18:19;98090.38;;;6.25;99.28
21760;BME280;11041;50.854;20.580;2023-02-18T01:20:47;98093.63;;;6.27;98.82
21760;BME280;11041;50.854;20.580;2023-02-18T01:23:14;98091.81;;;6.23;99.06
21760;BME280;11041;50.854;20.580;2023-02-18T01:25:41;98088.09;;;6.18;96.82
21760;BME280;11041;50.854;20.580;2023-02-18T01:28:11;98091.31;;;6.21;95.59
21760;BME280;11041;50.854;20.580;2023-02-18T01:30:38;98106.56;;;6.22;94.52
21760;BME280;11041;50.854;20.580;2023-02-18T01:33:05;98111.81;;;6.18;93.06
21760;BME280;11041;50.854;20.580;2023-02-18T01:35:32;98102.00;;;6.03;92.96
21760;BME280;11041;50.854;20.580;2023-02-18T01:37:59;98093.91;;;5.98;92.46
21760;BME280;11041;50.854;20.580;2023-02-18T01:40:28;98097.56;;;6.07;92.22
21760;BME280;11041;50.854;20.580;2023-02-18T01:42:56;98101.47;;;6.01;92.55
21760;BME280;11041;50.854;20.580;2023-02-18T01:50:47;98088.81;;;5.91;93.98
21760;BME280;11041;50.854;20.580;2023-02-18T01:53:21;98109.75;;;5.96;93.56
21760;BME280;11041;50.854;20.580;2023-02-18T01:55:51;98086.91;;;5.92;92.72
21760;BME280;11041;50.854;20.580;2023-02-18T01:58:19;98092.88;;;5.94;93.00
21760;BME280;11041;50.854;20.580;2023-02-18T02:00:46;98104.63;;;5.94;91.90
21760;BME280;11041;50.854;20.580;2023-02-18T02:03:13;98085.53;;;5.94;89.33
21760;BME280;11041;50.854;20.580;2023-02-18T02:05:39;98103.22;;;5.97;88.09
21760;BME280;11041;50.854;20.580;2023-02-18T02:08:06;98105.50;;;5.90;88.12
21760;BME280;11041;50.854;20.580;2023-02-18T02:17:08;98102.16;;;5.93;82.23
21760;BME280;11041;50.854;20.580;2023-02-18T02:46:10;98148.44;;;5.65;77.74
21760;BME280;11041;50.854;20.580;2023-02-18T02:51:31;98145.94;;;5.50;75.93
21760;BME280;11041;50.854;20.580;2023-02-18T02:54:23;98148.06;;;5.53;74.53
21760;BME280;11041;50.854;20.580;2023-02-18T02:59:46;98169.16;;;5.47;73.17
21760;BME280;11041;50.854;20.580;2023-02-18T03:06:39;98173.44;;;5.34;71.88
21760;BME280;11041;50.854;20.580;2023-02-18T03:09:20;98177.31;;;5.28;72.61
21760;BME280;11041;50.854;20.580;2023-02-18T03:13:12;98196.91;;;5.30;70.11
21760;BME280;11041;50.854;20.580;2023-02-18T03:18:33;98167.56;;;5.27;68.45
21760;BME280;11041;50.854;20.580;2023-02-18T03:21:20;98182.34;;;5.21;68.10
21760;BME280;11041;50.854;20.580;2023-02-18T03:24:00;98172.63;;;5.15;67.03
21760;BME280;11041;50.854;20.580;2023-02-18T03:26:30;98183.22;;;5.17;66.31
21760;BME280;11041;50.854;20.580;2023-02-18T03:29:02;98170.47;;;5.12;67.13
21760;BME280;11041;50.854;20.580;2023-02-18T03:31:33;98173.50;;;5.10;65.93
21760;BME280;11041;50.854;20.580;2023-02-18T03:34:10;98195.22;;;5.16;66.87
21760;BME280;11041;50.854;20.580;2023-02-18T03:36:38;98197.16;;;5.15;65.65
21760;BME280;11041;50.854;20.580;2023-02-18T03:39:18;98196.91;;;5.11;66.83
21760;BME280;11041;50.854;20.580;2023-02-18T03:41:46;98238.63;;;5.07;67.62
21760;BME280;11041;50.854;20.580;2023-02-18T03:44:14;98232.16;;;5.03;67.83
21760;BME280;11041;50.854;20.580;2023-02-18T03:46:43;98221.84;;;5.00;68.42
21760;BME280;11041;50.854;20.580;2023-02-18T03:49:14;98214.91;;;4.88;68.49
21760;BME280;11041;50.854;20.580;2023-02-18T03:51:42;98223.28;;;4.92;68.63
21760;BME280;11041;50.854;20.580;2023-02-18T03:54:10;98233.97;;;4.88;68.96
21760;BME280;11041;50.854;20.580;2023-02-18T03:56:36;98224.16;;;4.87;69.73
21760;BME280;11041;50.854;20.580;2023-02-18T03:59:03;98232.66;;;4.86;69.32
21760;BME280;11041;50.854;20.580;2023-02-18T04:01:30;98233.50;;;4.81;69.42
21760;BME280;11041;50.854;20.580;2023-02-18T04:03:56;98231.81;;;4.85;70.06
21760;BME280;11041;50.854;20.580;2023-02-18T04:06:23;98249.31;;;4.79;71.21
21760;BME280;11041;50.854;20.580;2023-02-18T04:08:50;98235.25;;;4.72;71.81
21760;BME280;11041;50.854;20.580;2023-02-18T04:11:16;98242.94;;;4.65;72.67
21760;BME280;11041;50.854;20.580;2023-02-18T04:13:43;98254.56;;;4.70;71.30
21760;BME280;11041;50.854;20.580;2023-02-18T04:16:09;98223.56;;;4.72;72.00
21760;BME280;11041;50.854;20.580;2023-02-18T04:18:36;98252.09;;;4.74;71.55
21760;BME280;11041;50.854;20.580;2023-02-18T04:21:02;98238.03;;;4.67;71.33
21760;BME280;11041;50.854;20.580;2023-02-18T04:23:29;98250.00;;;4.66;71.09
21760;BME280;11041;50.854;20.580;2023-02-18T04:25:56;98226.88;;;4.63;70.69
21760;BME280;11041;50.854;20.580;2023-02-18T04:28:22;98247.59;;;4.59;71.05
21760;BME280;11041;50.854;20.580;2023-02-18T04:30:49;98237.63;;;4.55;71.36
21760;BME280;11041;50.854;20.580;2023-02-18T04:33:15;98231.34;;;4.54;71.13
21760;BME280;11041;50.854;20.580;2023-02-18T04:35:42;98256.66;;;4.55;71.21
21760;BME280;11041;50.854;20.580;2023-02-18T04:38:10;98262.13;;;4.49;70.58
21760;BME280;11041;50.854;20.580;2023-02-18T04:40:36;98246.91;;;4.48;70.55
21760;BME280;11041;50.854;20.580;2023-02-18T04:43:03;98254.22;;;4.53;69.81
21760;BME280;11041;50.854;20.580;2023-02-18T04:45:29;98239.03;;;4.47;70.67
21760;BME280;11041;50.854;20.580;2023-02-18T04:47:56;98253.41;;;4.53;70.01
21760;BME280;11041;50.854;20.580;2023-02-18T04:50:23;98256.00;;;4.39;70.31
21760;BME280;11041;50.854;20.580;2023-02-18T04:52:49;98268.22;;;4.41;70.10
21760;BME280;11041;50.854;20.580;2023-02-18T04:55:16;98265.22;;;4.43;69.43
21760;BME280;11041;50.854;20.580;2023-02-18T04:57:42;98264.38;;;4.42;68.92
21760;BME280;11041;50.854;20.580;2023-02-18T05:00:14;98265.25;;;4.38;69.66
21760;BME280;11041;50.854;20.580;2023-02-18T05:02:42;98279.34;;;4.40;69.47
21760;BME280;11041;50.854;20.580;2023-02-18T05:05:09;98263.13;;;4.30;69.21
21760;BME280;11041;50.854;20.580;2023-02-18T05:07:36;98266.38;;;4.32;68.29
21760;BME280;11041;50.854;20.580;2023-02-18T05:10:03;98281.31;;;4.34;68.37
21760;BME280;11041;50.854;20.580;2023-02-18T05:12:30;98274.56;;;4.32;68.56
21760;BME280;11041;50.854;20.580;2023-02-18T05:14:57;98275.88;;;4.34;69.09
21760;BME280;11041;50.854;20.580;2023-02-18T05:17:23;98278.66;;;4.29;69.15
21760;BME280;11041;50.854;20.580;2023-02-18T05:19:50;98296.06;;;4.28;68.87
21760;BME280;11041;50.854;20.580;2023-02-18T05:22:17;98308.31;;;4.25;68.59
21760;BME280;11041;50.854;20.580;2023-02-18T05:24:43;98302.56;;;4.32;67.12
21760;BME280;11041;50.854;20.580;2023-02-18T05:27:10;98303.94;;;4.30;68.25
21760;BME280;11041;50.854;20.580;2023-02-18T05:29:36;98281.69;;;4.22;67.83
21760;BME280;11041;50.854;20.580;2023-02-18T05:32:03;98309.16;;;4.26;67.50
21760;BME280;11041;50.854;20.580;2023-02-18T05:34:29;98311.34;;;4.24;68.23
21760;BME280;11041;50.854;20.580;2023-02-18T05:36:56;98313.00;;;4.20;67.98
21760;BME280;11041;50.854;20.580;2023-02-18T05:39:22;98321.19;;;4.15;68.66
21760;BME280;11041;50.854;20.580;2023-02-18T05:41:49;98318.53;;;4.10;68.48
21760;BME280;11041;50.854;20.580;2023-02-18T05:44:15;98338.00;;;4.22;68.25
21760;BME280;11041;50.854;20.580;2023-02-18T05:47:01;98322.53;;;4.17;68.27
21760;BME280;11041;50.854;20.580;2023-02-18T05:49:30;98315.97;;;4.23;68.66
21760;BME280;11041;50.854;20.580;2023-02-18T05:51:58;98326.53;;;4.25;68.83
21760;BME280;11041;50.854;20.580;2023-02-18T05:54:25;98320.25;;;4.30;69.12
21760;BME280;11041;50.854;20.580;2023-02-18T05:56:53;98322.22;;;4.24;68.75
21760;BME280;11041;50.854;20.580;2023-02-18T05:59:20;98311.28;;;4.29;69.15
21760;BME280;11041;50.854;20.580;2023-02-18T06:01:47;98329.53;;;4.29;68.64
21760;BME280;11041;50.854;20.580;2023-02-18T06:04:14;98326.38;;;4.16;69.09
21760;BME280;11041;50.854;20.580;2023-02-18T06:06:41;98333.97;;;4.14;69.09
21760;BME280;11041;50.854;20.580;2023-02-18T06:09:09;98335.84;;;4.19;68.07
21760;BME280;11041;50.854;20.580;2023-02-18T06:11:36;98333.66;;;4.21;68.33
21760;BME280;11041;50.854;20.580;2023-02-18T06:14:03;98322.81;;;4.16;67.78
21760;BME280;11041;50.854;20.580;2023-02-18T06:16:31;98345.34;;;4.21;67.65
21760;BME280;11041;50.854;20.580;2023-02-18T06:18:57;98333.94;;;4.19;67.12
21760;BME280;11041;50.854;20.580;2023-02-18T06:21:24;98332.84;;;4.20;68.06
21760;BME280;11041;50.854;20.580;2023-02-18T06:23:51;98340.72;;;4.22;68.26
21760;BME280;11041;50.854;20.580;2023-02-18T06:26:18;98343.75;;;4.15;66.47
21760;BME280;11041;50.854;20.580;2023-02-18T06:28:45;98332.03;;;4.20;67.13
21760;BME280;11041;50.854;20.580;2023-02-18T06:31:11;98338.56;;;4.19;67.82
21760;BME280;11041;50.854;20.580;2023-02-18T06:33:38;98346.38;;;4.25;67.37
21760;BME280;11041;50.854;20.580;2023-02-18T06:36:08;98340.16;;;4.25;66.54
21760;BME280;11041;50.854;20.580;2023-02-18T06:38:38;98345.28;;;4.32;65.57
21760;BME280;11041;50.854;20.580;2023-02-18T06:41:05;98349.59;;;4.33;66.54
21760;BME280;11041;50.854;20.580;2023-02-18T06:43:33;98345.81;;;4.34;66.45
21760;BME280;11041;50.854;20.580;2023-02-18T06:46:00;98359.88;;;4.41;65.75
21760;BME280;11041;50.854;20.580;2023-02-18T06:48:26;98334.28;;;4.42;65.75
21760;BME280;11041;50.854;20.580;2023-02-18T06:50:53;98354.94;;;4.48;65.99
21760;BME280;11041;50.854;20.580;2023-02-18T06:53:20;98352.22;;;4.48;65.87
21760;BME280;11041;50.854;20.580;2023-02-18T06:55:46;98361.19;;;4.48;66.08
21760;BME280;11041;50.854;20.580;2023-02-18T06:58:13;98363.81;;;4.59;65.21
21760;BME280;11041;50.854;20.580;2023-02-18T07:00:41;98374.16;;;4.62;65.10
21760;BME280;11041;50.854;20.580;2023-02-18T07:03:09;98353.94;;;4.68;65.06
21760;BME280;11041;50.854;20.580;2023-02-18T07:05:36;98353.34;;;4.71;65.57
21760;BME280;11041;50.854;20.580;2023-02-18T07:08:03;98345.19;;;4.71;65.24
21760;BME280;11041;50.854;20.580;2023-02-18T07:10:29;98374.09;;;4.67;64.62
21760;BME280;11041;50.854;20.580;2023-02-18T07:12:56;98361.28;;;4.67;64.56
21760;BME280;11041;50.854;20.580;2023-02-18T07:15:22;98371.28;;;4.77;63.54
21760;BME280;11041;50.854;20.580;2023-02-18T07:17:50;98372.13;;;4.73;62.95
21760;BME280;11041;50.854;20.580;2023-02-18T07:20:19;98363.91;;;4.78;63.30
21760;BME280;11041;50.854;20.580;2023-02-18T07:22:46;98359.00;;;4.80;63.90
21760;BME280;11041;50.854;20.580;2023-02-18T07:25:13;98379.88;;;4.89;63.04
21760;BME280;11041;50.854;20.580;2023-02-18T07:27:40;98388.56;;;4.91;62.83
21760;BME280;11041;50.854;20.580;2023-02-18T07:30:07;98388.84;;;4.90;63.06
21760;BME280;11041;50.854;20.580;2023-02-18T07:32:34;98394.19;;;5.00;63.26
21760;BME280;11041;50.854;20.580;2023-02-18T07:35:02;98390.72;;;4.95;63.77
21760;BME280;11041;50.854;20.580;2023-02-18T07:37:29;98375.53;;;4.88;63.37
21760;BME280;11041;50.854;20.580;2023-02-18T07:39:58;98368.13;;;4.94;63.34
21760;BME280;11041;50.854;20.580;2023-02-18T07:42:32;98376.97;;;5.05;62.71
21760;BME280;11041;50.854;20.580;2023-02-18T07:44:59;98396.50;;;5.12;62.77
21760;BME280;11041;50.854;20.580;2023-02-18T07:47:28;98403.41;;;5.04;63.16
21760;BME280;11041;50.854;20.580;2023-02-18T07:49:55;98384.81;;;5.11;64.23
21760;BME280;11041;50.854;20.580;2023-02-18T07:52:22;98392.06;;;5.21;62.75
21760;BME280;11041;50.854;20.580;2023-02-18T07:54:48;98393.66;;;5.27;62.45
21760;BME280;11041;50.854;20.580;2023-02-18T07:57:15;98377.91;;;5.24;62.15
21760;BME280;11041;50.854;20.580;2023-02-18T07:59:41;98377.53;;;5.31;62.31
21760;BME280;11041;50.854;20.580;2023-02-18T08:02:22;98378.91;;;5.28;61.89
21760;BME280;11041;50.854;20.580;2023-02-18T08:04:49;98378.44;;;5.21;63.16
21760;BME280;11041;50.854;20.580;2023-02-18T08:07:18;98385.28;;;5.19;63.13
21760;BME280;11041;50.854;20.580;2023-02-18T08:09:45;98377.84;;;5.29;61.60
21760;BME280;11041;50.854;20.580;2023-02-18T08:12:14;98385.41;;;5.32;62.28
21760;BME280;11041;50.854;20.580;2023-02-18T08:14:40;98372.66;;;5.28;62.78
21760;BME280;11041;50.854;20.580;2023-02-18T08:17:07;98391.16;;;5.31;62.93
21760;BME280;11041;50.854;20.580;2023-02-18T08:19:34;98382.75;;;5.27;62.63
21760;BME280;11041;50.854;20.580;2023-02-18T08:22:01;98376.03;;;5.20;62.12
21760;BME280;11041;50.854;20.580;2023-02-18T08:24:28;98352.84;;;5.22;61.82
21760;BME280;11041;50.854;20.580;2023-02-18T08:26:55;98405.88;;;5.30;61.52
21760;BME280;11041;50.854;20.580;2023-02-18T08:29:22;98382.22;;;5.25;61.79
21760;BME280;11041;50.854;20.580;2023-02-18T08:31:48;98371.53;;;5.34;61.28
21760;BME280;11041;50.854;20.580;2023-02-18T08:34:17;98384.03;;;5.35;61.42
21760;BME280;11041;50.854;20.580;2023-02-18T08:36:44;98390.59;;;5.34;61.53
21760;BME280;11041;50.854;20.580;2023-02-18T08:39:10;98374.19;;;5.39;60.97
21760;BME280;11041;50.854;20.580;2023-02-18T08:41:36;98412.66;;;5.32;60.66
21760;BME280;11041;50.854;20.580;2023-02-18T08:44:03;98388.00;;;5.19;60.56
21760;BME280;11041;50.854;20.580;2023-02-18T08:46:30;98396.44;;;5.22;61.30
21760;BME280;11041;50.854;20.580;2023-02-18T08:48:56;98382.75;;;5.27;60.79
21760;BME280;11041;50.854;20.580;2023-02-18T08:51:31;98392.78;;;5.32;60.73
21760;BME280;11041;50.854;20.580;2023-02-18T08:54:01;98393.41;;;5.24;60.71
21760;BME280;11041;50.854;20.580;2023-02-18T08:56:27;98393.06;;;5.30;61.96
21760;BME280;11041;50.854;20.580;2023-02-18T08:58:54;98395.56;;;5.27;61.97
21760;BME280;11041;50.854;20.580;2023-02-18T09:01:20;98404.78;;;5.55;61.75
21760;BME280;11041;50.854;20.580;2023-02-18T09:03:47;98416.44;;;5.61;59.50
21760;BME280;11041;50.854;20.580;2023-02-18T09:06:13;98404.50;;;5.57;60.58
21760;BME280;11041;50.854;20.580;2023-02-18T09:08:40;98380.81;;;5.52;60.71
21760;BME280;11041;50.854;20.580;2023-02-18T09:11:06;98390.94;;;5.51;60.18
21760;BME280;11041;50.854;20.580;2023-02-18T09:13:33;98400.97;;;5.56;60.19
21760;BME280;11041;50.854;20.580;2023-02-18T09:16:15;98399.78;;;5.62;59.61
21760;BME280;11041;50.854;20.580;2023-02-18T09:18:44;98389.28;;;5.50;60.18
21760;BME280;11041;50.854;20.580;2023-02-18T09:21:15;98387.41;;;5.51;60.55
21760;BME280;11041;50.854;20.580;2023-02-18T09:23:42;98386.28;;;5.52;60.22
21760;BME280;11041;50.854;20.580;2023-02-18T09:26:13;98395.59;;;5.46;60.92
21760;BME280;11041;50.854;20.580;2023-02-18T09:28:41;98392.84;;;5.51;61.19
21760;BME280;11041;50.854;20.580;2023-02-18T09:31:14;98407.44;;;5.60;60.48
21760;BME280;11041;50.854;20.580;2023-02-18T09:33:49;98404.66;;;5.65;60.90
21760;BME280;11041;50.854;20.580;2023-02-18T09:36:17;98387.19;;;5.66;60.84
21760;BME280;11041;50.854;20.580;2023-02-18T09:38:44;98405.13;;;5.72;59.95
21760;BME280;11041;50.854;20.580;2023-02-18T09:41:33;98413.13;;;5.64;60.02
21760;BME280;11041;50.854;20.580;2023-02-18T09:47:24;98424.50;;;5.47;60.59
21760;BME280;11041;50.854;20.580;2023-02-18T09:50:00;98435.41;;;5.47;61.28
21760;BME280;11041;50.854;20.580;2023-02-18T09:52:35;98433.28;;;5.39;61.07
21760;BME280;11041;50.854;20.580;2023-02-18T09:58:25;98412.66;;;5.32;61.60
21760;BME280;11041;50.854;20.580;2023-02-18T10:03:48;98418.25;;;5.46;62.02
21760;BME280;11041;50.854;20.580;2023-02-18T10:06:28;98435.97;;;5.44;61.54
21760;BME280;11041;50.854;20.580;2023-02-18T10:09:00;98428.31;;;5.46;61.24
21760;BME280;11041;50.854;20.580;2023-02-18T10:11:38;98408.16;;;5.47;60.76
21760;BME280;11041;50.854;20.580;2023-02-18T10:14:11;98402.84;;;5.55;60.80
21760;BME280;11041;50.854;20.580;2023-02-18T10:16:40;98394.66;;;5.55;61.08
21760;BME280;11041;50.854;20.580;2023-02-18T10:19:25;98395.50;;;5.56;61.51
21760;BME280;11041;50.854;20.580;2023-02-18T10:21:54;98393.59;;;5.57;61.45
21760;BME280;11041;50.854;20.580;2023-02-18T10:27:03;98387.03;;;5.58;60.71
21760;BME280;11041;50.854;20.580;2023-02-18T10:29:30;98387.47;;;5.65;61.39
21760;BME280;11041;50.854;20.580;2023-02-18T10:35:29;98382.78;;;5.70;61.31
21760;BME280;11041;50.854;20.580;2023-02-18T10:41:15;98358.03;;;5.67;60.91
21760;BME280;11041;50.854;20.580;2023-02-18T10:50:04;98345.53;;;5.85;61.01
21760;BME280;11041;50.854;20.580;2023-02-18T10:52:37;98346.94;;;5.82;59.20
21760;BME280;11041;50.854;20.580;2023-02-18T10:55:16;98343.38;;;5.82;60.57
21760;BME280;11041;50.854;20.580;2023-02-18T10:57:53;98337.69;;;5.78;60.00
21760;BME280;11041;50.854;20.580;2023-02-18T11:00:26;98327.22;;;5.66;60.78
21760;BME280;11041;50.854;20.580;2023-02-18T11:03:48;98336.75;;;5.88;59.20
21760;BME280;11041;50.854;20.580;2023-02-18T11:06:24;98335.09;;;5.87;59.97
21760;BME280;11041;50.854;20.580;2023-02-18T11:08:53;98336.16;;;5.91;60.02
21760;BME280;11041;50.854;20.580;2023-02-18T11:11:37;98324.44;;;5.90;61.28
21760;BME280;11041;50.854;20.580;2023-02-18T11:14:06;98322.03;;;6.08;59.29
21760;BME280;11041;50.854;20.580;2023-02-18T11:16:42;98324.66;;;6.13;59.70
21760;BME280;11041;50.854;20.580;2023-02-18T11:19:38;98328.94;;;6.19;57.81
21760;BME280;11041;50.854;20.580;2023-02-18T11:22:15;98314.00;;;6.16;57.36
21760;BME280;11041;50.854;20.580;2023-02-18T11:24:44;98302.75;;;6.18;57.19
21760;BME280;11041;50.854;20.580;2023-02-18T11:27:40;98321.63;;;6.33;56.98
21760;BME280;11041;50.854;20.580;2023-02-18T11:30:31;98325.44;;;6.32;56.95
21760;BME280;11041;50.854;20.580;2023-02-18T11:33:16;98293.47;;;6.38;56.96
21760;BME280;11041;50.854;20.580;2023-02-18T11:35:54;98307.38;;;6.36;55.84
21760;BME280;11041;50.854;20.580;2023-02-18T11:38:46;98312.47;;;6.43;55.86
21760;BME280;11041;50.854;20.580;2023-02-18T11:41:21;98312.88;;;6.50;55.60
21760;BME280;11041;50.854;20.580;2023-02-18T11:43:52;98306.72;;;6.45;53.75
21760;BME280;11041;50.854;20.580;2023-02-18T11:46:23;98303.06;;;6.49;54.55
21760;BME280;11041;50.854;20.580;2023-02-18T11:48:51;98309.97;;;6.60;54.01
21760;BME280;11041;50.854;20.580;2023-02-18T11:51:38;98285.94;;;6.76;53.03
21760;BME280;11041;50.854;20.580;2023-02-18T11:54:28;98302.00;;;6.78;53.13
21760;BME280;11041;50.854;20.580;2023-02-18T11:57:17;98263.31;;;6.76;52.93
21760;BME280;11041;50.854;20.580;2023-02-18T11:59:45;98247.63;;;6.81;53.27
21760;BME280;11041;50.854;20.580;2023-02-18T12:02:35;98258.63;;;6.90;52.66
21760;BME280;11041;50.854;20.580;2023-02-18T12:05:27;98256.91;;;6.94;52.52
21760;BME280;11041;50.854;20.580;2023-02-18T12:08:24;98255.22;;;6.98;52.42
21760;BME280;11041;50.854;20.580;2023-02-18T12:11:11;98243.25;;;6.94;51.92
21760;BME280;11041;50.854;20.580;2023-02-18T12:13:52;98242.75;;;6.92;51.70
21760;BME280;11041;50.854;20.580;2023-02-18T12:49:18;98190.88;;;6.92;52.30
21760;BME280;11041;50.854;20.580;2023-02-18T12:54:49;98175.31;;;6.93;52.79
21760;BME280;11041;50.854;20.580;2023-02-18T13:12:34;98167.81;;;6.98;54.17
21760;BME280;11041;50.854;20.580;2023-02-18T13:15:28;98167.19;;;7.01;55.07
21760;BME280;11041;50.854;20.580;2023-02-18T13:18:00;98167.13;;;6.93;56.21
21760;BME280;11041;50.854;20.580;2023-02-18T13:21:16;98188.03;;;6.97;57.76
21760;BME280;11041;50.854;20.580;2023-02-18T13:23:55;98172.19;;;6.86;60.80
21760;BME280;11041;50.854;20.580;2023-02-18T13:26:23;98171.06;;;6.73;63.39
21760;BME280;11041;50.854;20.580;2023-02-18T13:32:30;98156.69;;;6.39;69.10
21760;BME280;11041;50.854;20.580;2023-02-18T13:35:39;98196.88;;;6.20;70.28
21760;BME280;11041;50.854;20.580;2023-02-18T13:38:50;98171.38;;;5.97;71.34
21760;BME280;11041;50.854;20.580;2023-02-18T13:41:20;98168.06;;;5.81;71.80
21760;BME280;11041;50.854;20.580;2023-02-18T13:43:48;98160.06;;;5.71;72.38
21760;BME280;11041;50.854;20.580;2023-02-18T13:46:20;98154.09;;;5.69;72.31
21760;BME280;11041;50.854;20.580;2023-02-18T13:49:04;98150.66;;;5.63;71.96
21760;BME280;11041;50.854;20.580;2023-02-18T13:51:44;98162.97;;;5.61;72.94
21760;BME280;11041;50.854;20.580;2023-02-18T13:54:15;98159.22;;;5.57;73.01
21760;BME280;11041;50.854;20.580;2023-02-18T13:56:54;98146.19;;;5.53;72.80
21760;BME280;11041;50.854;20.580;2023-02-18T13:59:40;98146.19;;;5.53;73.48
21760;BME280;11041;50.854;20.580;2023-02-18T14:02:33;98121.34;;;5.55;73.78
21760;BME280;11041;50.854;20.580;2023-02-18T14:25:57;98087.25;;;5.25;74.65
21760;BME280;11041;50.854;20.580;2023-02-18T14:37:32;98079.00;;;4.92;80.32
21760;BME280;11041;50.854;20.580;2023-02-18T14:40:47;98077.38;;;4.72;82.08
21760;BME280;11041;50.854;20.580;2023-02-18T14:43:54;98074.06;;;4.56;84.13
21760;BME280;11041;50.854;20.580;2023-02-18T14:47:00;98064.63;;;4.48;85.72
21760;BME280;11041;50.854;20.580;2023-02-18T14:49:41;98044.16;;;4.32;86.36
21760;BME280;11041;50.854;20.580;2023-02-18T14:52:36;98048.75;;;4.37;87.74
21760;BME280;11041;50.854;20.580;2023-02-18T14:55:15;98039.94;;;4.21;89.15
21760;BME280;11041;50.854;20.580;2023-02-18T15:19:50;97974.28;;;4.14;94.32
21760;BME280;11041;50.854;20.580;2023-02-18T15:22:26;97969.25;;;4.21;94.33
21760;BME280;11041;50.854;20.580;2023-02-18T15:24:54;97962.56;;;4.13;95.02
21760;BME280;11041;50.854;20.580;2023-02-18T15:27:30;97958.22;;;4.12;95.46
21760;BME280;11041;50.854;20.580;2023-02-18T15:30:27;97971.97;;;4.21;95.84
21760;BME280;11041;50.854;20.580;2023-02-18T15:32:58;97953.59;;;4.13;95.70
21760;BME280;11041;50.854;20.580;2023-02-18T15:35:31;97942.78;;;4.08;96.01
21760;BME280;11041;50.854;20.580;2023-02-18T15:38:00;97928.47;;;4.02;96.00
21760;BME280;11041;50.854;20.580;2023-02-18T15:40:33;97929.72;;;4.10;96.75
21760;BME280;11041;50.854;20.580;2023-02-18T15:43:05;97928.91;;;4.09;96.70
21760;BME280;11041;50.854;20.580;2023-02-18T15:45:44;97919.94;;;4.09;96.49
21760;BME280;11041;50.854;20.580;2023-02-18T15:48:43;97929.56;;;4.20;96.73
21760;BME280;11041;50.854;20.580;2023-02-18T15:51:18;97914.38;;;4.19;96.60
21760;BME280;11041;50.854;20.580;2023-02-18T15:53:52;97917.81;;;4.24;96.48
21760;BME280;11041;50.854;20.580;2023-02-18T15:56:38;97916.34;;;4.32;95.95
21760;BME280;11041;50.854;20.580;2023-02-18T15:59:19;97914.94;;;4.35;96.00
21760;BME280;11041;50.854;20.580;2023-02-18T16:01:56;97888.25;;;4.37;95.97
21760;BME280;11041;50.854;20.580;2023-02-18T16:04:28;97886.13;;;4.34;95.89
21760;BME280;11041;50.854;20.580;2023-02-18T16:07:02;97866.59;;;4.32;96.15
21760;BME280;11041;50.854;20.580;2023-02-18T16:09:32;97877.66;;;4.35;96.08
21760;BME280;11041;50.854;20.580;2023-02-18T16:14:58;97868.41;;;4.36;96.41
21760;BME280;11041;50.854;20.580;2023-02-18T16:17:28;97878.34;;;4.46;96.23
21760;BME280;11041;50.854;20.580;2023-02-18T16:20:15;97850.31;;;4.45;96.02
21760;BME280;11041;50.854;20.580;2023-02-18T16:22:51;97860.69;;;4.43;96.17
21760;BME280;11041;50.854;20.580;2023-02-18T16:25:42;97873.69;;;4.46;96.00
21760;BME280;11041;50.854;20.580;2023-02-18T16:28:25;97871.41;;;4.54;95.98
21760;BME280;11041;50.854;20.580;2023-02-18T16:30:55;97861.41;;;4.49;96.01
21760;BME280;11041;50.854;20.580;2023-02-18T16:33:22;97862.00;;;4.46;95.68